Time;durP1;ratioP1;P1;durP2;ratioP2;P2;SDS_P1;SDS_P2;PMS_P1;PMS_P2;Temp;Humidity;BMP_temperature;BMP_pressure;BME280_temperature;BME280_humidity;BME280_pressure;Samples;Min_cycle;Max_cycle;Signal;HPM_P1;HPM_P2
2022/12/04 00:00:26;;;;;;;8.60;5.47;;;;;;;;;;4997954;28;20018;-27
2022/12/04 00:02:52;;;;;;;9.45;6.40;;;;;;;;;;4998294;28;20022;-27
2022/12/04 00:05:18;;;;;;;6.40;4.97;;;;;;;;;;4998122;28;20049;-27
2022/12/04 00:07:44;;;;;;;9.25;6.25;;;;;;;;;;4997212;28;20042;-27
2022/12/04 00:10:10;;;;;;;6.82;6.13;;;;;;;;;;4998589;28;20027;-27
2022/12/04 00:12:36;;;;;;;6.95;5.25;;;;;;;;;;4998129;28;20030;-27
2022/12/04 00:15:03;;;;;;;6.43;5.43;;;;;;;;;;4997879;28;20026;-27
2022/12/04 00:17:30;;;;;;;7.03;5.25;;;;;;;;;;4997981;28;20405;-27
2022/12/04 00:19:56;;;;;;;6.03;5.43;;;;;;;;;;4997894;28;20065;-27
2022/12/04 00:22:23;;;;;;;7.45;6.72;;;;;;;;;;4997803;28;20460;-27
2022/12/04 00:24:49;;;;;;;5.65;4.80;;;;;;;;;;4997765;28;20030;-27
2022/12/04 00:27:15;;;;;;;7.93;5.88;;;;;;;;;;4997759;28;20022;-27
2022/12/04 00:29:41;;;;;;;6.35;5.50;;;;;;;;;;4997737;28;20088;-27
2022/12/04 00:32:07;;;;;;;6.05;5.40;;;;;;;;;;4997890;28;20026;-27
2022/12/04 00:34:33;;;;;;;7.43;6.28;;;;;;;;;;4998065;28;20430;-27
2022/12/04 00:37:00;;;;;;;10.57;5.72;;;;;;;;;;4997851;28;20022;-27
2022/12/04 00:39:26;;;;;;;5.97;5.38;;;;;;;;;;4997512;28;20026;-27
2022/12/04 00:41:52;;;;;;;9.70;5.50;;;;;;;;;;4997410;28;20050;-27
2022/12/04 00:44:18;;;;;;;6.72;6.07;;;;;;;;;;4997708;28;20030;-27
2022/12/04 00:46:44;;;;;;;6.25;5.43;;;;;;;;;;4997391;28;20027;-27
2022/12/04 00:49:10;;;;;;;7.10;6.25;;;;;;;;;;4997635;28;20026;-26
2022/12/04 00:51:36;;;;;;;6.93;6.05;;;;;;;;;;4997796;28;20341;-27
2022/12/04 00:54:03;;;;;;;8.38;5.88;;;;;;;;;;4997116;28;20041;-26
2022/12/04 00:56:29;;;;;;;7.82;6.60;;;;;;;;;;4997508;28;20501;-27
2022/12/04 00:58:56;;;;;;;5.97;5.22;;;;;;;;;;4997153;28;20022;-27
2022/12/04 01:01:23;;;;;;;6.57;5.75;;;;;;;;;;4997146;28;20026;-27
2022/12/04 01:03:49;;;;;;;7.25;5.57;;;;;;;;;;4996830;28;20046;-27
2022/12/04 01:06:23;;;;;;;6.40;5.75;;;;;;;;;;4996166;28;20454;-27
2022/12/04 01:08:50;;;;;;;6.10;5.57;;;;;;;;;;4997278;28;20041;-27
2022/12/04 01:11:17;;;;;;;6.40;5.80;;;;;;;;;;4996094;28;20026;-27
2022/12/04 01:13:43;;;;;;;7.95;5.13;;;;;;;;;;4996765;28;20035;-27
2022/12/04 01:16:15;;;;;;;6.38;5.60;;;;;;;;;;4996835;28;20038;-27
2022/12/04 01:18:41;;;;;;;9.43;5.88;;;;;;;;;;4997153;28;20025;-27
2022/12/04 01:21:07;;;;;;;6.50;5.90;;;;;;;;;;4996736;28;20022;-27
2022/12/04 01:23:33;;;;;;;6.22;5.43;;;;;;;;;;4996669;28;20049;-27
2022/12/04 01:25:59;;;;;;;6.68;5.20;;;;;;;;;;4996710;28;20034;-27
2022/12/04 01:28:26;;;;;;;10.30;6.05;;;;;;;;;;4996917;28;20339;-26
2022/12/04 01:30:59;;;;;;;6.60;5.80;;;;;;;;;;4996846;28;20022;-27
2022/12/04 01:33:25;;;;;;;6.88;5.50;;;;;;;;;;4996767;28;20092;-27
2022/12/04 01:35:53;;;;;;;7.03;5.47;;;;;;;;;;4996689;28;20046;-27
2022/12/04 01:38:19;;;;;;;7.10;6.40;;;;;;;;;;4996944;28;20045;-27
2022/12/04 01:40:45;;;;;;;7.70;6.20;;;;;;;;;;4997159;28;20041;-27
2022/12/04 01:43:12;;;;;;;6.63;5.88;;;;;;;;;;4996264;28;20030;-27
2022/12/04 01:45:42;;;;;;;7.15;5.93;;;;;;;;;;4996566;28;20030;-27
2022/12/04 01:48:12;;;;;;;8.38;4.95;;;;;;;;;;4996252;28;20069;-27
2022/12/04 01:50:39;;;;;;;7.67;6.30;;;;;;;;;;4996839;28;20026;-27
2022/12/04 01:53:06;;;;;;;8.93;6.38;;;;;;;;;;4996382;28;20353;-27
2022/12/04 01:55:32;;;;;;;6.10;5.38;;;;;;;;;;4996027;28;20454;-27
2022/12/04 01:58:00;;;;;;;6.57;5.90;;;;;;;;;;4996033;28;20121;-27
2022/12/04 02:00:27;;;;;;;7.53;5.60;;;;;;;;;;4996283;28;20477;-27
2022/12/04 02:02:53;;;;;;;10.85;5.53;;;;;;;;;;4995918;28;20030;-27
2022/12/04 02:05:20;;;;;;;7.38;5.68;;;;;;;;;;4996718;28;20049;-27
2022/12/04 02:07:49;;;;;;;7.53;5.40;;;;;;;;;;4995837;28;20026;-27
2022/12/04 02:10:16;;;;;;;6.65;5.70;;;;;;;;;;4996090;28;20034;-27
2022/12/04 02:13:00;;;;;;;6.45;5.20;;;;;;;;;;4995744;28;20028;-27
2022/12/04 02:15:32;;;;;;;5.70;5.20;;;;;;;;;;4995705;28;20064;-27
2022/12/04 02:18:11;;;;;;;7.82;6.63;;;;;;;;;;4995982;28;20381;-27
2022/12/04 02:20:37;;;;;;;6.85;5.95;;;;;;;;;;4995745;28;20054;-27
2022/12/04 02:23:19;;;;;;;7.85;6.35;;;;;;;;;;4995473;28;20101;-27
2022/12/04 02:26:03;;;;;;;6.22;5.63;;;;;;;;;;4995527;28;20045;-27
2022/12/04 02:28:48;;;;;;;7.30;6.60;;;;;;;;;;4995889;28;20101;-27
2022/12/04 02:31:20;;;;;;;5.43;4.93;;;;;;;;;;4995467;28;20038;-27
2022/12/04 02:33:49;;;;;;;5.90;5.38;;;;;;;;;;4995625;28;20022;-27
2022/12/04 02:36:21;;;;;;;6.00;5.40;;;;;;;;;;4995397;28;20030;-27
2022/12/04 02:38:59;;;;;;;7.85;5.40;;;;;;;;;;4995443;28;20464;-27
2022/12/04 02:41:34;;;;;;;5.03;4.63;;;;;;;;;;4995656;28;20026;-27
2022/12/04 02:44:07;;;;;;;6.38;5.72;;;;;;;;;;4995598;28;20045;-27
2022/12/04 02:46:36;;;;;;;7.13;5.28;;;;;;;;;;4995616;28;20030;-27
2022/12/04 02:49:04;;;;;;;7.53;5.75;;;;;;;;;;4995571;28;20044;-27
2022/12/04 02:51:33;;;;;;;10.15;7.03;;;;;;;;;;4995236;28;20019;-27
2022/12/04 02:54:04;;;;;;;6.60;6.00;;;;;;;;;;4995370;28;20030;-27
2022/12/04 02:56:30;;;;;;;;;;;;;;;;;;4995948;28;20022;-27
2022/12/04 02:58:59;;;;;;;6.70;5.70;;;;;;;;;;4995201;28;19932;-27
2022/12/04 03:01:28;;;;;;;6.45;5.82;;;;;;;;;;4996225;28;20057;-27
2022/12/04 03:04:15;;;;;;;8.85;7.25;;;;;;;;;;4994968;28;20078;-27
2022/12/04 03:06:42;;;;;;;6.05;5.55;;;;;;;;;;4995093;28;20073;-27
2022/12/04 03:09:11;;;;;;;7.03;5.85;;;;;;;;;;4995181;28;20101;-27
2022/12/04 03:11:39;;;;;;;6.55;5.32;;;;;;;;;;4995359;28;20027;-27
2022/12/04 03:14:25;;;;;;;7.10;4.90;;;;;;;;;;4995214;28;20045;-27
2022/12/04 03:16:53;;;;;;;7.55;6.40;;;;;;;;;;4994950;28;20034;-27
2022/12/04 03:19:22;;;;;;;6.63;5.63;;;;;;;;;;4995316;28;20101;-27
2022/12/04 03:21:51;;;;;;;7.20;6.07;;;;;;;;;;4994953;28;20037;-27
2022/12/04 03:24:23;;;;;;;7.05;6.00;;;;;;;;;;4995246;28;20030;-27
2022/12/04 03:26:58;;;;;;;5.53;5.03;;;;;;;;;;4995553;28;20110;-27
2022/12/04 03:29:35;;;;;;;8.18;5.72;;;;;;;;;;4995533;28;20030;-27
2022/12/04 03:32:07;;;;;;;6.45;5.28;;;;;;;;;;4995408;28;20106;-27
2022/12/04 03:34:40;;;;;;;6.03;5.40;;;;;;;;;;4996696;28;20038;-27
2022/12/04 03:37:13;;;;;;;11.02;5.63;;;;;;;;;;4998647;28;20026;-27
2022/12/04 03:39:50;;;;;;;6.57;5.03;;;;;;;;;;4998995;28;20026;-27
2022/12/04 03:42:20;;;;;;;6.30;5.70;;;;;;;;;;4999117;28;20022;-27
2022/12/04 03:45:06;;;;;;;6.03;5.50;;;;;;;;;;4999084;28;20034;-27
2022/12/04 03:47:45;;;;;;;6.88;6.18;;;;;;;;;;4998779;28;20458;-27
2022/12/04 03:50:30;;;;;;;6.40;5.40;;;;;;;;;;4998735;28;20030;-27
2022/12/04 03:53:02;;;;;;;5.95;5.40;;;;;;;;;;4998365;28;20105;-27
2022/12/04 03:55:28;;;;;;;7.68;5.80;;;;;;;;;;4998318;28;20031;-26
2022/12/04 03:57:57;;;;;;;5.97;5.40;;;;;;;;;;4998298;28;20030;-27
2022/12/04 04:00:24;;;;;;;7.50;5.35;;;;;;;;;;4998291;28;20133;-27
2022/12/04 04:02:54;;;;;;;6.47;5.78;;;;;;;;;;4998711;28;20437;-27
2022/12/04 04:05:22;;;;;;;9.32;5.88;;;;;;;;;;4998234;28;20073;-27
2022/12/04 04:07:54;;;;;;;5.82;5.22;;;;;;;;;;4997542;28;20085;-27
2022/12/04 04:10:23;;;;;;;5.70;5.20;;;;;;;;;;4998382;28;20042;-27
2022/12/04 04:24:13;;;;;;;6.22;5.70;;;;;;;;;;4998374;28;20050;-27
2022/12/04 04:26:42;;;;;;;5.70;5.18;;;;;;;;;;4997817;28;20038;-26
2022/12/04 04:29:09;;;;;;;6.65;5.72;;;;;;;;;;4997793;28;20018;-27
2022/12/04 04:31:41;;;;;;;6.00;5.45;;;;;;;;;;4997971;28;20108;-27
2022/12/04 04:34:26;;;;;;;6.13;5.22;;;;;;;;;;4997557;28;20034;-27
2022/12/04 04:37:00;;;;;;;6.00;5.22;;;;;;;;;;4997933;28;20030;-27
2022/12/04 04:39:26;;;;;;;6.93;5.68;;;;;;;;;;4997036;28;20354;-27
2022/12/04 04:41:58;;;;;;;6.45;5.38;;;;;;;;;;4997984;28;20084;-27
2022/12/04 04:44:43;;;;;;;7.13;5.50;;;;;;;;;;4997767;28;20064;-27
2022/12/04 04:47:15;;;;;;;6.32;5.72;;;;;;;;;;4996611;28;20040;-27
2022/12/04 04:49:42;;;;;;;6.15;5.55;;;;;;;;;;4997700;28;20026;-27
2022/12/04 04:52:08;;;;;;;5.60;5.05;;;;;;;;;;4997549;28;20026;-27
2022/12/04 04:54:35;;;;;;;5.55;4.97;;;;;;;;;;4997517;28;20330;-27
2022/12/04 04:57:01;;;;;;;5.80;5.15;;;;;;;;;;4997248;28;20039;-27
2022/12/04 04:59:27;;;;;;;5.38;4.75;;;;;;;;;;4997165;28;20034;-27
2022/12/04 05:01:53;;;;;;;5.95;5.30;;;;;;;;;;4997139;28;20113;-27
2022/12/04 05:04:20;;;;;;;5.82;5.32;;;;;;;;;;4997516;28;20121;-27
2022/12/04 05:06:47;;;;;;;6.10;5.50;;;;;;;;;;4997344;28;20061;-27
2022/12/04 05:09:14;;;;;;;6.40;5.80;;;;;;;;;;4997024;28;20046;-27
2022/12/04 05:11:40;;;;;;;6.22;5.65;;;;;;;;;;4996972;28;20484;-27
2022/12/04 05:14:08;;;;;;;6.18;5.57;;;;;;;;;;4996820;28;20031;-27
2022/12/04 05:16:34;;;;;;;5.53;5.03;;;;;;;;;;4996885;28;20469;-27
2022/12/04 05:21:45;;;;;;;5.72;5.18;;;;;;;;;;4997104;28;20049;-27
2022/12/04 05:24:11;;;;;;;6.93;5.65;;;;;;;;;;4996613;28;20038;-27
2022/12/04 05:26:37;;;;;;;5.82;5.18;;;;;;;;;;4996667;28;20110;-27
2022/12/04 05:29:03;;;;;;;6.00;5.40;;;;;;;;;;4997412;28;20119;-27
2022/12/04 05:31:30;;;;;;;6.40;5.80;;;;;;;;;;4996884;28;20026;-27
2022/12/04 05:33:56;;;;;;;5.60;5.10;;;;;;;;;;4996457;28;20461;-27
2022/12/04 05:36:22;;;;;;;5.00;4.60;;;;;;;;;;4996524;28;20026;-27
2022/12/04 05:38:48;;;;;;;7.50;5.82;;;;;;;;;;4996484;28;20033;-27
2022/12/04 05:41:14;;;;;;;5.28;4.75;;;;;;;;;;4996386;28;20450;-27
2022/12/04 05:43:40;;;;;;;5.20;4.80;;;;;;;;;;4996357;28;20031;-27
2022/12/04 05:46:07;;;;;;;6.13;5.63;;;;;;;;;;4996319;28;20458;-27
2022/12/04 05:48:34;;;;;;;6.80;5.18;;;;;;;;;;4996257;28;20101;-27
2022/12/04 05:51:04;;;;;;;6.43;5.82;;;;;;;;;;4996186;28;20066;-27
2022/12/04 05:53:31;;;;;;;5.97;5.35;;;;;;;;;;4996371;28;20544;-27
2022/12/04 05:55:58;;;;;;;6.10;5.60;;;;;;;;;;4996110;28;20077;-27
2022/12/04 05:58:25;;;;;;;5.57;5.07;;;;;;;;;;4995715;28;20461;-27
2022/12/04 06:00:51;;;;;;;5.05;4.65;;;;;;;;;;4996332;28;20034;-27
2022/12/04 06:03:17;;;;;;;5.63;5.13;;;;;;;;;;4995739;28;20038;-27
2022/12/04 06:05:43;;;;;;;7.57;5.57;;;;;;;;;;4995968;28;20038;-27
2022/12/04 06:08:10;;;;;;;6.20;5.15;;;;;;;;;;4996221;28;20041;-27
2022/12/04 06:10:36;;;;;;;6.18;5.57;;;;;;;;;;4996127;28;20030;-27
2022/12/04 06:13:02;;;;;;;5.60;5.10;;;;;;;;;;4996136;28;20038;-27
2022/12/04 06:15:28;;;;;;;6.88;6.18;;;;;;;;;;4995687;28;20038;-27
2022/12/04 06:17:55;;;;;;;5.65;5.10;;;;;;;;;;4995767;28;20031;-27
2022/12/04 06:20:21;;;;;;;5.22;4.72;;;;;;;;;;4995692;28;20080;-27
2022/12/04 06:22:47;;;;;;;5.78;4.85;;;;;;;;;;4995632;28;20044;-27
2022/12/04 06:25:13;;;;;;;6.20;5.60;;;;;;;;;;4995927;28;20026;-27
2022/12/04 06:27:39;;;;;;;6.97;6.30;;;;;;;;;;4995643;28;20369;-27
2022/12/04 06:30:06;;;;;;;6.07;5.57;;;;;;;;;;4995581;28;20049;-27
2022/12/04 06:32:32;;;;;;;5.97;5.45;;;;;;;;;;4996016;28;20113;-27
2022/12/04 06:34:58;;;;;;;5.60;5.05;;;;;;;;;;4995411;28;20029;-27
2022/12/04 06:37:25;;;;;;;5.32;4.82;;;;;;;;;;4995689;28;20030;-27
2022/12/04 06:39:51;;;;;;;6.15;5.55;;;;;;;;;;4995680;28;20034;-27
2022/12/04 06:42:17;;;;;;;5.55;4.72;;;;;;;;;;4995328;28;20023;-27
2022/12/04 06:44:44;;;;;;;6.45;5.85;;;;;;;;;;4995665;28;20030;-27
2022/12/04 06:47:10;;;;;;;7.18;5.78;;;;;;;;;;4995901;28;20026;-27
2022/12/04 06:49:36;;;;;;;5.90;5.40;;;;;;;;;;4995847;28;20031;-27
2022/12/04 06:52:02;;;;;;;7.07;6.00;;;;;;;;;;4994399;28;20034;-27
2022/12/04 06:54:28;;;;;;;6.00;5.47;;;;;;;;;;4995146;28;20026;-27
2022/12/04 06:56:55;;;;;;;5.63;5.03;;;;;;;;;;4995198;28;20041;-27
2022/12/04 06:59:21;;;;;;;6.03;5.43;;;;;;;;;;4995261;28;20041;-27
2022/12/04 07:01:47;;;;;;;5.78;5.28;;;;;;;;;;4995461;28;20057;-27
2022/12/04 07:04:13;;;;;;;5.35;4.88;;;;;;;;;;4995035;28;20141;-27
2022/12/04 07:06:39;;;;;;;6.07;5.40;;;;;;;;;;4995411;28;20026;-27
2022/12/04 07:09:08;;;;;;;7.20;5.53;;;;;;;;;;4996312;28;20038;-27
2022/12/04 07:11:35;;;;;;;6.93;6.22;;;;;;;;;;4999438;28;20030;-27
2022/12/04 07:14:01;;;;;;;5.88;5.30;;;;;;;;;;4999289;28;20030;-27
2022/12/04 07:16:28;;;;;;;5.68;5.15;;;;;;;;;;5000148;28;20401;-27
2022/12/04 07:18:55;;;;;;;6.50;5.90;;;;;;;;;;4999076;28;20030;-27
2022/12/04 07:21:25;;;;;;;5.75;5.28;;;;;;;;;;4999062;28;20128;-27
2022/12/04 07:23:53;;;;;;;7.03;6.45;;;;;;;;;;4998923;28;20166;-27
2022/12/04 07:26:19;;;;;;;5.80;5.30;;;;;;;;;;4998973;28;20442;-27
2022/12/04 07:28:45;;;;;;;6.50;5.68;;;;;;;;;;4998888;28;20037;-26
2022/12/04 07:31:13;;;;;;;7.10;6.10;;;;;;;;;;4999407;28;20034;-27
2022/12/04 07:33:40;;;;;;;6.45;5.65;;;;;;;;;;4998738;28;20369;-27
2022/12/04 07:36:07;;;;;;;4.95;4.45;;;;;;;;;;4998961;28;20038;-26
2022/12/04 07:38:34;;;;;;;7.07;5.50;;;;;;;;;;4998960;28;20117;-27
2022/12/04 07:41:01;;;;;;;6.45;5.82;;;;;;;;;;4998632;28;20117;-28
2022/12/04 07:43:28;;;;;;;5.82;5.32;;;;;;;;;;4998820;28;20048;-26
2022/12/04 07:45:54;;;;;;;5.78;5.28;;;;;;;;;;4998843;28;20408;-26
2022/12/04 07:48:21;;;;;;;6.70;5.18;;;;;;;;;;4998530;28;20026;-26
2022/12/04 07:50:47;;;;;;;5.32;4.82;;;;;;;;;;4998751;28;20096;-27
2022/12/04 07:53:13;;;;;;;5.75;5.15;;;;;;;;;;4998390;28;20038;-26
2022/12/04 07:55:39;;;;;;;6.93;5.97;;;;;;;;;;4998316;28;20030;-26
2022/12/04 07:58:05;;;;;;;6.93;4.88;;;;;;;;;;4998355;28;20038;-26
2022/12/04 08:00:31;;;;;;;6.82;6.22;;;;;;;;;;4998287;28;20026;-26
2022/12/04 08:02:58;;;;;;;5.97;5.47;;;;;;;;;;4997983;28;20022;-26
2022/12/04 08:05:24;;;;;;;8.15;6.00;;;;;;;;;;4998468;28;20370;-26
2022/12/04 08:07:50;;;;;;;5.38;4.88;;;;;;;;;;4998226;28;20018;-26
2022/12/04 08:10:16;;;;;;;5.35;4.85;;;;;;;;;;4998409;28;20026;-26
2022/12/04 08:12:42;;;;;;;6.60;5.78;;;;;;;;;;4998279;28;20105;-26
2022/12/04 08:15:09;;;;;;;5.20;4.72;;;;;;;;;;4997997;28;20038;-26
2022/12/04 08:17:35;;;;;;;5.90;5.30;;;;;;;;;;4998266;28;20102;-26
2022/12/04 08:20:01;;;;;;;5.10;4.70;;;;;;;;;;4997912;28;20418;-26
2022/12/04 08:22:27;;;;;;;5.20;4.70;;;;;;;;;;4997824;28;20027;-26
2022/12/04 08:24:53;;;;;;;6.03;5.53;;;;;;;;;;4997822;28;20034;-26
2022/12/04 08:27:20;;;;;;;6.20;5.70;;;;;;;;;;4997827;28;20044;-26
2022/12/04 08:29:46;;;;;;;5.30;4.80;;;;;;;;;;4997780;28;20030;-26
2022/12/04 08:32:12;;;;;;;5.65;5.03;;;;;;;;;;4997704;28;20079;-26
2022/12/04 08:34:38;;;;;;;6.03;5.43;;;;;;;;;;4997623;28;20034;-26
2022/12/04 08:37:04;;;;;;;5.10;4.60;;;;;;;;;;4997941;28;20030;-26
2022/12/04 08:39:31;;;;;;;5.80;5.30;;;;;;;;;;4997859;28;20057;-26
2022/12/04 08:41:57;;;;;;;5.20;4.80;;;;;;;;;;4997753;28;20034;-26
2022/12/04 08:44:23;;;;;;;5.65;4.63;;;;;;;;;;4997824;28;20035;-26
2022/12/04 08:46:49;;;;;;;5.03;4.63;;;;;;;;;;4997739;28;20049;-26
2022/12/04 08:49:15;;;;;;;5.57;5.07;;;;;;;;;;4997488;28;20022;-26
2022/12/04 08:51:42;;;;;;;5.20;4.70;;;;;;;;;;4997375;28;20041;-26
2022/12/04 08:54:08;;;;;;;5.75;5.28;;;;;;;;;;4997213;28;20026;-25
2022/12/04 08:56:36;;;;;;;5.47;4.97;;;;;;;;;;4997236;28;20041;-25
2022/12/04 08:59:02;;;;;;;5.53;5.03;;;;;;;;;;4997515;28;20022;-26
2022/12/04 09:01:29;;;;;;;6.15;5.43;;;;;;;;;;4997487;28;20454;-25
2022/12/04 09:03:55;;;;;;;6.13;5.63;;;;;;;;;;4996887;28;20044;-25
2022/12/04 09:06:21;;;;;;;6.30;5.72;;;;;;;;;;4997388;28;20072;-25
2022/12/04 09:08:48;;;;;;;5.30;4.78;;;;;;;;;;4997340;28;20085;-25
2022/12/04 09:11:15;;;;;;;5.30;4.90;;;;;;;;;;4997016;28;20042;-25
2022/12/04 09:13:42;;;;;;;5.63;5.13;;;;;;;;;;4997151;28;20098;-25
2022/12/04 09:16:09;;;;;;;5.82;5.07;;;;;;;;;;4996893;28;20037;-26
2022/12/04 09:18:36;;;;;;;5.47;4.97;;;;;;;;;;4997404;28;20022;-25
2022/12/04 09:21:04;;;;;;;5.40;4.90;;;;;;;;;;4997095;28;20030;-25
2022/12/04 09:23:30;;;;;;;7.00;6.32;;;;;;;;;;4996958;28;20373;-27
2022/12/04 09:25:56;;;;;;;5.60;5.10;;;;;;;;;;4997016;28;20358;-26
2022/12/04 09:28:22;;;;;;;7.25;4.70;;;;;;;;;;4996672;28;20084;-28
2022/12/04 09:31:01;;;;;;;8.50;5.57;;;;;;;;;;4996839;28;20026;-25
2022/12/04 09:33:29;;;;;;;5.43;4.90;;;;;;;;;;4996157;28;20034;-27
2022/12/04 09:35:55;;;;;;;5.20;4.80;;;;;;;;;;4996444;28;20041;-25
2022/12/04 09:38:21;;;;;;;6.20;5.30;;;;;;;;;;4996497;28;20097;-25
2022/12/04 09:40:54;;;;;;;5.50;5.00;;;;;;;;;;4996971;28;20033;-26
2022/12/04 09:43:26;;;;;;;6.43;5.93;;;;;;;;;;4996361;28;20092;-26
2022/12/04 09:45:54;;;;;;;5.30;4.80;;;;;;;;;;4996675;28;20026;-26
2022/12/04 09:48:22;;;;;;;5.25;4.85;;;;;;;;;;4996838;28;20030;-26
2022/12/04 09:50:48;;;;;;;5.57;5.18;;;;;;;;;;4996590;28;20026;-26
2022/12/04 09:53:17;;;;;;;6.72;5.10;;;;;;;;;;4996143;28;20038;-26
2022/12/04 09:55:54;;;;;;;5.88;5.38;;;;;;;;;;4996620;28;20045;-26
2022/12/04 09:58:27;;;;;;;5.50;5.03;;;;;;;;;;4996478;28;20022;-26
2022/12/04 10:00:54;;;;;;;5.38;4.88;;;;;;;;;;4996379;28;20112;-26
2022/12/04 10:03:21;;;;;;;5.53;5.03;;;;;;;;;;4995929;28;20038;-26
2022/12/04 10:05:57;;;;;;;5.72;4.85;;;;;;;;;;4996274;28;20132;-26
2022/12/04 10:08:27;;;;;;;5.57;5.07;;;;;;;;;;4995917;28;20465;-26
2022/12/04 10:11:12;;;;;;;6.70;5.05;;;;;;;;;;4996210;28;20038;-26
2022/12/04 10:14:10;;;;;;;5.15;4.75;;;;;;;;;;4995809;28;20027;-26
2022/12/04 10:16:48;;;;;;;5.65;5.15;;;;;;;;;;4953170;28;20099;-26
2022/12/04 10:19:33;;;;;;;6.05;5.47;;;;;;;;;;4995723;28;20117;-26
2022/12/04 10:22:07;;;;;;;5.50;5.00;;;;;;;;;;4995620;28;20037;-26
2022/12/04 10:24:43;;;;;;;5.75;5.25;;;;;;;;;;4995968;28;20034;-26
2022/12/04 10:27:12;;;;;;;6.38;5.82;;;;;;;;;;4995662;28;20030;-26
2022/12/04 10:29:40;;;;;;;7.43;5.72;;;;;;;;;;4995634;28;20046;-26
2022/12/04 10:32:18;;;;;;;5.10;4.68;;;;;;;;;;4995741;28;20026;-26
2022/12/04 10:34:44;;;;;;;5.30;4.80;;;;;;;;;;4995478;28;20096;-26
2022/12/04 10:37:14;;;;;;;5.30;4.82;;;;;;;;;;4995772;28;20034;-26
2022/12/04 10:39:40;;;;;;;5.22;4.70;;;;;;;;;;4995448;28;20022;-26
2022/12/04 10:42:25;;;;;;;5.85;4.75;;;;;;;;;;4996069;28;20058;-26
2022/12/04 10:44:52;;;;;;;5.75;5.25;;;;;;;;;;4995436;28;20030;-26
2022/12/04 10:47:20;;;;;;;5.28;4.78;;;;;;;;;;4995349;28;20458;-26
2022/12/04 10:49:47;;;;;;;5.45;4.97;;;;;;;;;;4994379;28;20061;-26
2022/12/04 10:52:13;;;;;;;5.90;5.00;;;;;;;;;;4995285;28;20027;-26
2022/12/04 10:54:56;;;;;;;5.15;4.60;;;;;;;;;;4995476;28;20034;-26
2022/12/04 10:57:22;;;;;;;6.10;5.60;;;;;;;;;;4995555;28;20458;-26
2022/12/04 10:59:53;;;;;;;6.03;5.53;;;;;;;;;;4995183;28;20037;-26
2022/12/04 11:02:27;;;;;;;5.88;5.30;;;;;;;;;;4995121;28;20027;-26
2022/12/04 11:04:57;;;;;;;5.65;5.07;;;;;;;;;;4995633;28;20046;-26
2022/12/04 11:07:28;;;;;;;5.13;4.35;;;;;;;;;;4995186;28;20034;-26
2022/12/04 11:09:55;;;;;;;6.72;5.05;;;;;;;;;;4995739;28;20110;-26
2022/12/04 11:12:23;;;;;;;5.45;4.93;;;;;;;;;;4995489;28;20034;-26
2022/12/04 11:14:59;;;;;;;5.20;4.80;;;;;;;;;;4995286;28;20066;-26
2022/12/04 11:17:25;;;;;;;7.55;5.47;;;;;;;;;;4995073;28;20018;-26
2022/12/04 11:20:05;;;;;;;5.47;5.03;;;;;;;;;;4995087;28;20034;-26
2022/12/04 11:22:31;;;;;;;5.80;4.80;;;;;;;;;;4995511;28;20061;-26
2022/12/04 11:24:58;;;;;;;5.82;5.35;;;;;;;;;;4995253;28;20349;-26
2022/12/04 11:27:34;;;;;;;4.97;4.53;;;;;;;;;;4994983;28;20034;-26
2022/12/04 11:30:01;;;;;;;5.38;4.82;;;;;;;;;;4995290;28;20033;-26
2022/12/04 11:32:32;;;;;;;5.30;4.90;;;;;;;;;;4994874;28;20030;-26
2022/12/04 11:35:07;;;;;;;4.65;4.25;;;;;;;;;;4995150;28;20034;-26
2022/12/04 11:37:34;;;;;;;5.13;4.72;;;;;;;;;;4995378;28;20019;-26
2022/12/04 11:40:01;;;;;;;5.38;4.88;;;;;;;;;;4995175;28;20052;-26
2022/12/04 11:42:28;;;;;;;5.68;5.18;;;;;;;;;;4994807;28;20026;-26
2022/12/04 11:44:59;;;;;;;5.32;4.78;;;;;;;;;;4995357;28;20172;-26
2022/12/04 11:47:27;;;;;;;5.85;5.28;;;;;;;;;;4995041;28;20092;-27
2022/12/04 11:50:10;;;;;;;4.57;4.18;;;;;;;;;;4994788;28;20069;-26
2022/12/04 11:53:06;;;;;;;5.30;4.80;;;;;;;;;;4994667;28;20045;-26
2022/12/04 11:55:32;;;;;;;5.28;4.78;;;;;;;;;;4980646;28;20039;-26
2022/12/04 11:58:18;;;;;;;5.07;4.65;;;;;;;;;;4998638;28;20149;-26
2022/12/04 12:00:54;;;;;;;5.30;4.70;;;;;;;;;;4959172;28;20454;-26
2022/12/04 12:03:30;;;;;;;4.78;4.38;;;;;;;;;;4998028;28;20058;-26
2022/12/04 12:06:16;;;;;;;5.90;5.30;;;;;;;;;;4998230;28;20050;-26
2022/12/04 12:09:00;;;;;;;5.97;4.60;;;;;;;;;;4998440;28;20035;-26
2022/12/04 12:11:26;;;;;;;5.95;5.45;;;;;;;;;;4998107;28;20046;-26
2022/12/04 12:13:59;;;;;;;5.32;4.82;;;;;;;;;;4998061;28;20069;-26
2022/12/04 12:16:33;;;;;;;6.57;5.22;;;;;;;;;;4997960;28;20113;-26
2022/12/04 12:19:12;;;;;;;5.85;5.38;;;;;;;;;;4998009;28;20026;-26
2022/12/04 12:21:38;;;;;;;5.30;4.90;;;;;;;;;;4998540;28;20050;-26
2022/12/04 12:24:10;;;;;;;5.13;4.72;;;;;;;;;;4997830;28;20030;-26
2022/12/04 12:26:55;;;;;;;5.03;4.57;;;;;;;;;;4998157;28;20034;-26
2022/12/04 12:29:21;;;;;;;5.68;5.28;;;;;;;;;;4997832;28;20027;-26
2022/12/04 12:32:03;;;;;;;5.55;4.68;;;;;;;;;;4997822;28;20022;-26
2022/12/04 12:34:36;;;;;;;5.38;4.95;;;;;;;;;;4997680;28;20041;-26
2022/12/04 12:37:07;;;;;;;5.07;4.57;;;;;;;;;;4997699;28;20092;-26
2022/12/04 12:39:43;;;;;;;5.65;5.15;;;;;;;;;;4998224;28;20030;-26
2022/12/04 12:42:15;;;;;;;5.38;4.93;;;;;;;;;;4997833;28;20137;-26
2022/12/04 12:44:48;;;;;;;4.82;4.43;;;;;;;;;;4997864;28;20106;-26
2022/12/04 12:47:19;;;;;;;5.00;4.50;;;;;;;;;;4997518;28;20164;-26
2022/12/04 12:50:00;;;;;;;5.63;5.13;;;;;;;;;;4997745;28;20041;-26
2022/12/04 12:52:35;;;;;;;4.78;4.38;;;;;;;;;;4997344;28;20030;-26
2022/12/04 12:55:14;;;;;;;5.05;4.63;;;;;;;;;;4997568;28;20358;-26
2022/12/04 12:57:41;;;;;;;4.63;4.15;;;;;;;;;;4997594;28;20101;-26
2022/12/04 13:00:15;;;;;;;5.55;5.05;;;;;;;;;;4997283;28;20023;-26
2022/12/04 13:03:03;;;;;;;4.95;4.55;;;;;;;;;;4997417;28;20026;-26
2022/12/04 13:05:31;;;;;;;5.57;5.07;;;;;;;;;;4958715;28;20036;-26
2022/12/04 13:08:10;;;;;;;5.35;4.53;;;;;;;;;;4957584;28;20348;-26
2022/12/04 13:10:39;;;;;;;5.03;4.53;;;;;;;;;;4958321;28;20039;-26
2022/12/04 13:13:10;;;;;;;5.03;4.63;;;;;;;;;;4958317;28;20031;-26
2022/12/04 13:15:42;;;;;;;4.80;4.32;;;;;;;;;;4958512;28;20501;-26
2022/12/04 13:18:09;;;;;;;5.20;4.70;;;;;;;;;;4958471;29;20038;-26
2022/12/04 13:20:39;;;;;;;4.75;4.35;;;;;;;;;;4958388;28;20027;-26
2022/12/04 13:23:14;;;;;;;5.13;4.70;;;;;;;;;;4958255;28;20054;-26
2022/12/04 13:25:40;;;;;;;5.35;4.85;;;;;;;;;;4958035;29;20106;-26
2022/12/04 13:28:25;;;;;;;4.63;4.22;;;;;;;;;;4957960;29;20042;-26
2022/12/04 13:30:56;;;;;;;5.05;4.55;;;;;;;;;;4958212;28;20463;-26
2022/12/04 13:33:22;;;;;;;;;;;;;;;;;;4958558;29;20371;-26
2022/12/04 13:35:51;;;;;;;4.80;4.40;;;;;;;;;;4958037;29;19921;-26
2022/12/04 13:38:27;;;;;;;5.03;4.63;;;;;;;;;;4957805;29;20023;-26
2022/12/04 13:40:55;;;;;;;6.15;5.60;;;;;;;;;;4958036;28;20035;-26
2022/12/04 13:43:27;;;;;;;5.07;4.57;;;;;;;;;;4957576;28;20118;-26
2022/12/04 13:45:55;;;;;;;4.97;4.57;;;;;;;;;;4957641;29;20027;-26
2022/12/04 13:48:28;;;;;;;4.97;4.50;;;;;;;;;;4957895;29;20031;-26
2022/12/04 13:51:01;;;;;;;5.30;4.80;;;;;;;;;;4957628;28;20135;-26
2022/12/04 13:53:36;;;;;;;5.63;5.15;;;;;;;;;;4956543;29;20038;-26
2022/12/04 13:56:03;;;;;;;6.07;5.07;;;;;;;;;;4957725;28;20110;-26
2022/12/04 13:58:33;;;;;;;5.85;5.35;;;;;;;;;;4957479;29;20102;-26
2022/12/04 14:01:01;;;;;;;5.75;5.25;;;;;;;;;;4957881;29;20020;-26
2022/12/04 14:03:45;;;;;;;5.60;5.10;;;;;;;;;;4965315;28;20038;-26
2022/12/04 14:06:31;;;;;;;6.00;5.40;;;;;;;;;;4995234;28;20108;-26
2022/12/04 14:08:59;;;;;;;5.80;5.30;;;;;;;;;;4995378;28;20062;-26
2022/12/04 14:11:26;;;;;;;4.93;4.53;;;;;;;;;;4995395;28;20366;-26
2022/12/04 14:13:57;;;;;;;4.93;4.53;;;;;;;;;;4995047;28;20030;-26
2022/12/04 14:16:29;;;;;;;5.80;4.88;;;;;;;;;;4995009;28;20034;-26
2022/12/04 14:18:57;;;;;;;5.07;4.68;;;;;;;;;;4994711;28;20026;-26
2022/12/04 14:21:23;;;;;;;5.38;4.90;;;;;;;;;;4995061;28;20054;-26
2022/12/04 14:23:51;;;;;;;5.00;4.60;;;;;;;;;;4994322;28;20041;-26
2022/12/04 14:26:27;;;;;;;5.22;4.75;;;;;;;;;;4995201;28;20536;-26
2022/12/04 14:29:05;;;;;;;4.45;4.05;;;;;;;;;;4995154;28;20035;-26
2022/12/04 14:31:37;;;;;;;4.97;4.38;;;;;;;;;;4995166;28;20335;-26
2022/12/04 14:34:21;;;;;;;5.07;4.68;;;;;;;;;;4995023;28;20031;-26
2022/12/04 14:36:50;;;;;;;5.30;4.82;;;;;;;;;;4994803;28;20033;-26
2022/12/04 14:39:16;;;;;;;5.25;4.75;;;;;;;;;;4994993;28;20038;-26
2022/12/04 14:41:42;;;;;;;5.60;5.13;;;;;;;;;;4994735;28;20026;-26
2022/12/04 14:44:21;;;;;;;5.18;4.78;;;;;;;;;;4994608;28;20034;-26
2022/12/04 14:46:50;;;;;;;4.22;3.92;;;;;;;;;;4994934;28;20042;-26
2022/12/04 14:49:31;;;;;;;4.93;4.53;;;;;;;;;;4994876;28;20037;-26
2022/12/04 14:52:16;;;;;;;5.13;4.72;;;;;;;;;;4994839;28;20438;-26
2022/12/04 14:54:59;;;;;;;5.45;4.47;;;;;;;;;;4994425;28;20034;-26
2022/12/04 14:57:45;;;;;;;5.57;4.82;;;;;;;;;;4994788;28;20030;-26
2022/12/04 15:00:16;;;;;;;5.45;5.05;;;;;;;;;;4995046;28;20027;-26
2022/12/04 15:02:43;;;;;;;5.05;4.65;;;;;;;;;;4994609;28;20019;-26
2022/12/04 15:05:17;;;;;;;5.00;4.53;;;;;;;;;;4950787;28;1280707;-26
2022/12/04 15:07:51;;;;;;;5.85;5.28;;;;;;;;;;4995180;28;20509;-26
2022/12/04 15:13:27;;;;;;;4.97;4.57;;;;;;;;;;4995461;28;20085;-26
2022/12/04 15:15:53;;;;;;;4.90;4.47;;;;;;;;;;4995020;28;20041;-26